ADDS TAF Board (Experimental) INFO

IDs: Format: Expanded Condensed

Updated at: 1906 UTC 01 Sep 2014

KPIT - Pittsburgh Intl, PA, US

Issued at 1720 UTC 01 Sep 2014
Time1851Z01/20Z01/21Z01/22Z01/23Z02/00Z02/01Z02/02Z02/03Z02/04Z02/05Z02/06Z02/07Z02/08Z
TypeOBSPRVLPRVLPRVLPRVLPRVLPRVLPRVLPRVLPRVLPRVLPRVLPRVLPRVL
VIS10>6>6>6>6>6>6>6>6>6>6>6>6>6
CIG25035353535353535353535353535
CoverBKNBKNBKNBKNBKNBKNBKNBKNBKNBKNBKNBKNBKNBKN
FltCat--VFRVFRVFRVFRVFRVFRVFRVFRVFRVFRVFRVFRVFR
WX--VCSHVCSHVCSHVCSHVCSHVCSHVCSHVCSHVCSHVCSHVCSHVCSHVCSH
WDir210220220220220220220220220220220220220220
WSpd910101010101010101010101010
WGst----------------------------
R10/28
XWnd-8-8-8-8-8-8-8-8-8-8-8-8-8-8
HWnd-4-6-6-6-6-6-6-6-6-6-6-6-6-6
R14/32
XWnd-9-10-10-10-10-10-10-10-10-10-10-10-10-10
HWnd21111111111111
Raw TAF
KPIT 011720Z 0118/0224 23008KT P6SM VCSH BKN026 BKN040
  FM011900 22010KT P6SM VCSH BKN035
  FM021000 22006KT 4SM BR BKN025


Raw METAR
KPIT 011851Z 21009KT 10SM SCT031 SCT130 BKN250 28/20 A2998 RMK AO2 SLP149 T02830200

TAF Board Legend

Hazard VFR MVFR IFR LIFR
Visibility (sm) >5 3≤X≤5 1≤X<3 <1
Ceiling (100 ft) >30 10≤X≤30 5≤X<10 <5
Wind Speed (kt) <10 10≤X<20 20≤X<30 ≥30
Wind Gust (kt) <15 15≤X<25 25≤X<35 ≥35
Weather No Wx Reported VCTS,-TS,-FZRA TS,FZRA +TS,+FZRA


Page loaded:  19:06 UTC  |   12:06 PM Pacific  |   01:06 PM Mountain  |   02:06 PM Central  |   03:06 PM Eastern

 

ADVISORIES

FORECASTS

FORECASTS

OBSERVATIONS

USER TOOLS

ABOUT US